Time;durP1;ratioP1;P1;durP2;ratioP2;P2;SDS_P1;SDS_P2;PMS_P1;PMS_P2;Temp;Humidity;BMP_temperature;BMP_pressure;BME280_temperature;BME280_humidity;BME280_pressure;Samples;Min_cycle;Max_cycle;Signal;HPM_P1;HPM_P2
2023/12/24 00:00:55;;;;;;;2.08;1.50;;;20.10;78.30;;;;;;2067679;28;20864;-51
2023/12/24 00:01:56;;;;;;;3.78;1.80;;;20.00;78.20;;;;;;2067385;28;20041;-51
2023/12/24 00:02:56;;;;;;;3.58;1.80;;;20.10;78.30;;;;;;2065923;28;20301;-51
2023/12/24 00:03:57;;;;;;;3.53;1.67;;;20.10;78.20;;;;;;2067935;28;20052;-53
2023/12/24 00:04:57;;;;;;;3.50;1.50;;;20.10;78.20;;;;;;2069983;28;20030;-54
2023/12/24 00:05:58;;;;;;;2.97;1.50;;;20.10;78.20;;;;;;2070724;28;20057;-52
2023/12/24 00:06:58;;;;;;;3.70;1.33;;;20.10;78.10;;;;;;2071160;28;20110;-51
2023/12/24 00:07:59;;;;;;;4.28;1.50;;;20.10;78.10;;;;;;2069991;28;20026;-55
2023/12/24 00:09:00;;;;;;;2.83;1.63;;;20.00;78.00;;;;;;2070287;28;20556;-52
2023/12/24 00:10:00;;;;;;;1.98;1.50;;;20.10;78.00;;;;;;2070496;28;20109;-51
2023/12/24 00:11:01;;;;;;;4.88;1.42;;;20.00;77.90;;;;;;2069741;28;20034;-51
2023/12/24 00:12:02;;;;;;;3.35;1.63;;;20.10;78.00;;;;;;2069920;28;20073;-51
2023/12/24 00:13:02;;;;;;;2.63;1.55;;;20.00;77.80;;;;;;2070533;28;20025;-52
2023/12/24 00:14:03;;;;;;;2.40;1.33;;;20.00;77.90;;;;;;2070794;28;20449;-53
2023/12/24 00:15:05;;;;;;;3.05;1.60;;;20.00;77.90;;;;;;2069773;28;20010;-52
2023/12/24 00:16:06;;;;;;;4.97;1.70;;;20.00;77.90;;;;;;2070923;28;20081;-51
2023/12/24 00:17:06;;;;;;;4.32;1.52;;;20.00;77.90;;;;;;2070016;28;20026;-52
2023/12/24 00:18:07;;;;;;;3.85;1.70;;;20.00;77.80;;;;;;2065780;28;20018;-52
2023/12/24 00:19:08;;;;;;;1.88;1.35;;;20.00;77.80;;;;;;2070339;28;20073;-52
2023/12/24 00:20:09;;;;;;;2.25;1.40;;;20.10;77.90;;;;;;2068650;28;20102;-50
2023/12/24 00:21:12;;;;;;;2.10;1.30;;;20.00;77.90;;;;;;2065250;28;20374;-53
2023/12/24 00:22:12;;;;;;;3.63;1.33;;;20.10;78.00;;;;;;2065848;28;20041;-51
2023/12/24 00:23:13;;;;;;;2.72;1.15;;;20.10;78.00;;;;;;2066787;28;20446;-52
2023/12/24 00:24:14;;;;;;;2.40;1.40;;;20.00;77.90;;;;;;2067330;28;20030;-52
2023/12/24 00:25:14;;;;;;;3.58;1.45;;;19.90;77.80;;;;;;2067839;28;20030;-51
2023/12/24 00:26:16;;;;;;;3.22;1.42;;;20.00;77.80;;;;;;2068175;28;20082;-53
2023/12/24 00:27:16;;;;;;;2.13;1.23;;;20.00;77.90;;;;;;2070088;28;20022;-50
2023/12/24 00:28:17;;;;;;;5.43;1.67;;;20.10;77.90;;;;;;2070617;28;20023;-51
2023/12/24 00:29:18;;;;;;;2.78;1.40;;;20.00;77.70;;;;;;2068665;28;20385;-51
2023/12/24 00:30:19;;;;;;;3.55;1.55;;;20.00;77.70;;;;;;2068100;28;20064;-51
2023/12/24 00:31:19;;;;;;;2.00;1.40;;;20.00;77.70;;;;;;2065445;28;20103;-54
2023/12/24 00:32:20;;;;;;;3.95;1.50;;;20.00;77.70;;;;;;2064727;28;20053;-51
2023/12/24 00:33:20;;;;;;;2.47;1.48;;;20.10;77.70;;;;;;2070165;28;20457;-53
2023/12/24 00:34:21;;;;;;;3.40;1.60;;;20.00;77.70;;;;;;2070955;28;20018;-51
2023/12/24 00:35:22;;;;;;;3.33;1.42;;;20.00;77.70;;;;;;2066154;28;20029;-51
2023/12/24 00:36:22;;;;;;;3.13;1.42;;;20.00;77.70;;;;;;2070359;28;20033;-50
2023/12/24 00:37:23;;;;;;;3.65;1.70;;;20.00;77.70;;;;;;2069662;28;20333;-51
2023/12/24 00:38:24;;;;;;;4.45;1.42;;;20.00;77.70;;;;;;2068410;28;20033;-50
2023/12/24 00:39:24;;;;;;;7.15;1.45;;;20.00;77.80;;;;;;2067503;28;20030;-53
2023/12/24 00:40:25;;;;;;;3.22;1.55;;;19.90;77.70;;;;;;2065355;28;20054;-50
2023/12/24 00:41:26;;;;;;;1.88;1.52;;;20.10;77.80;;;;;;2066350;28;20077;-54
2023/12/24 00:42:26;;;;;;;2.88;1.15;;;20.00;77.70;;;;;;2065953;28;20034;-54
2023/12/24 00:43:27;;;;;;;2.38;1.27;;;20.00;77.70;;;;;;2066768;28;20073;-51
2023/12/24 00:44:27;;;;;;;4.32;1.40;;;20.00;77.70;;;;;;2070214;28;20021;-51
2023/12/24 00:45:29;;;;;;;3.17;1.40;;;19.90;77.60;;;;;;2070319;28;20034;-54
2023/12/24 00:46:30;;;;;;;1.85;1.20;;;20.00;77.70;;;;;;2068918;28;20097;-53
2023/12/24 00:47:31;;;;;;;2.72;1.20;;;19.90;77.60;;;;;;2070276;28;20030;-52
2023/12/24 00:48:31;;;;;;;2.60;1.38;;;20.00;77.60;;;;;;2065224;28;20029;-51
2023/12/24 00:49:32;;;;;;;1.85;1.30;;;19.90;77.60;;;;;;2069505;28;20084;-51
2023/12/24 00:50:32;;;;;;;2.47;1.45;;;20.00;77.70;;;;;;2070261;28;20022;-51
2023/12/24 00:51:33;;;;;;;2.63;1.48;;;19.90;77.60;;;;;;2066846;28;20050;-50
2023/12/24 00:52:37;;;;;;;2.40;1.52;;;19.90;77.60;;;;;;2065238;28;20505;-54
2023/12/24 00:53:37;;;;;;;4.10;1.42;;;19.90;77.60;;;;;;2068153;28;20480;-52
2023/12/24 00:54:38;;;;;;;2.45;1.20;;;19.90;77.60;;;;;;2071493;28;20136;-53
2023/12/24 00:55:40;;;;;;;2.78;1.90;;;19.90;77.60;;;;;;2070344;28;20029;-52
2023/12/24 00:56:40;;;;;;;2.67;1.38;;;20.00;77.60;;;;;;2066636;28;20098;-50
2023/12/24 00:57:41;;;;;;;1.42;1.27;;;19.90;77.60;;;;;;2070775;28;20567;-51
2023/12/24 00:58:41;;;;;;;2.53;1.52;;;19.90;77.60;;;;;;2072288;28;20530;-52
2023/12/24 00:59:42;;;;;;;4.00;1.73;;;19.90;77.60;;;;;;2070499;28;20056;-51
2023/12/24 01:00:46;;;;;;;3.22;1.40;;;19.90;77.60;;;;;;2071686;28;20072;-50
2023/12/24 01:01:47;;;;;;;1.75;1.35;;;19.90;77.50;;;;;;2068142;28;20477;-50
2023/12/24 01:02:48;;;;;;;4.25;1.40;;;19.90;77.50;;;;;;2071089;28;20048;-52
2023/12/24 01:03:48;;;;;;;1.75;1.30;;;19.90;77.50;;;;;;2072298;28;20493;-52
2023/12/24 01:04:49;;;;;;;2.78;1.20;;;19.90;77.50;;;;;;2071637;28;20029;-52
2023/12/24 01:05:49;;;;;;;1.63;1.40;;;19.90;78.10;;;;;;2072055;28;20378;-52
2023/12/24 01:06:50;;;;;;;2.58;1.42;;;19.90;77.50;;;;;;2072172;28;20072;-52
2023/12/24 01:07:50;;;;;;;4.20;1.40;;;19.90;77.50;;;;;;2071561;28;20018;-51
2023/12/24 01:08:51;;;;;;;2.28;1.30;;;19.90;77.50;;;;;;2067469;28;20378;-51
2023/12/24 01:09:51;;;;;;;4.25;1.40;;;19.80;77.40;;;;;;2068482;28;20253;-50
2023/12/24 01:10:52;;;;;;;3.30;1.27;;;19.90;77.40;;;;;;2069139;28;20392;-54
2023/12/24 01:11:53;;;;;;;3.17;1.33;;;19.90;77.50;;;;;;2070444;28;20313;-50
2023/12/24 01:12:53;;;;;;;2.47;1.02;;;19.90;77.50;;;;;;2066666;28;20022;-53
2023/12/24 01:13:54;;;;;;;3.10;1.42;;;19.90;77.50;;;;;;2068069;28;20026;-51
2023/12/24 01:14:54;;;;;;;3.90;1.30;;;19.90;77.40;;;;;;2068407;28;20061;-51
2023/12/24 01:15:55;;;;;;;3.25;1.30;;;19.80;77.30;;;;;;2068713;28;20018;-54
2023/12/24 01:16:55;;;;;;;2.88;1.42;;;19.90;77.40;;;;;;2072013;28;20682;-51
2023/12/24 01:17:56;;;;;;;2.08;1.25;;;19.90;77.40;;;;;;2071700;28;20022;-50
2023/12/24 01:18:56;;;;;;;3.17;1.30;;;19.80;77.20;;;;;;2068213;28;20026;-52
2023/12/24 01:19:57;;;;;;;2.08;1.27;;;19.80;77.20;;;;;;2071218;28;20076;-52
2023/12/24 01:20:58;;;;;;;2.22;1.30;;;19.90;77.40;;;;;;2071913;28;20493;-51
2023/12/24 01:21:59;;;;;;;2.95;1.15;;;19.80;77.30;;;;;;2072408;28;20488;-52
2023/12/24 01:22:59;;;;;;;3.25;1.30;;;19.90;77.40;;;;;;2070784;28;20014;-50
2023/12/24 01:24:00;;;;;;;2.78;1.30;;;19.80;77.30;;;;;;2068620;28;20093;-50
2023/12/24 01:25:00;;;;;;;3.72;1.30;;;19.80;77.20;;;;;;2070315;28;20034;-50
2023/12/24 01:26:01;;;;;;;3.40;1.40;;;19.80;77.20;;;;;;2070900;28;20022;-51
2023/12/24 01:27:01;;;;;;;3.78;1.02;;;19.80;77.20;;;;;;2068590;28;20072;-50
2023/12/24 01:28:02;;;;;;;1.75;1.20;;;19.80;77.20;;;;;;2068502;28;20034;-52
2023/12/24 01:29:03;;;;;;;2.45;1.30;;;19.80;77.20;;;;;;2065956;28;20029;-50
2023/12/24 01:30:05;;;;;;;3.13;1.65;;;19.80;77.20;;;;;;2072248;28;20025;-51
2023/12/24 01:31:05;;;;;;;2.75;1.30;;;19.80;77.10;;;;;;2068219;28;20398;-51
2023/12/24 01:32:06;;;;;;;3.03;1.30;;;19.80;77.10;;;;;;2069856;28;20046;-50
2023/12/24 01:33:07;;;;;;;1.88;1.08;;;19.80;77.10;;;;;;2068323;28;20022;-51
2023/12/24 01:34:08;;;;;;;1.25;1.15;;;19.80;77.10;;;;;;2066128;28;20023;-51
2023/12/24 01:35:08;;;;;;;1.58;1.02;;;19.80;77.10;;;;;;2067584;28;20093;-50
2023/12/24 01:36:09;;;;;;;2.33;1.35;;;19.80;77.10;;;;;;2067304;28;20026;-51
2023/12/24 01:37:10;;;;;;;2.33;1.05;;;19.80;77.20;;;;;;2066738;28;20026;-52
2023/12/24 01:38:10;;;;;;;1.83;1.20;;;19.80;77.20;;;;;;2066417;28;20026;-53
2023/12/24 01:39:11;;;;;;;2.20;1.10;;;19.80;77.20;;;;;;2072277;28;20077;-50
2023/12/24 01:40:12;;;;;;;4.60;1.67;;;19.80;77.20;;;;;;2069057;28;20406;-53
2023/12/24 01:41:12;;;;;;;2.63;1.10;;;19.80;77.20;;;;;;2071608;28;20116;-50
2023/12/24 01:42:13;;;;;;;2.05;1.23;;;19.80;77.10;;;;;;2066856;28;20027;-50
2023/12/24 01:43:14;;;;;;;3.38;1.40;;;19.80;77.10;;;;;;2067323;28;20026;-50
2023/12/24 01:44:14;;;;;;;1.52;0.90;;;19.80;77.10;;;;;;2065846;28;20330;-51
2023/12/24 01:45:15;;;;;;;1.30;0.95;;;19.80;77.00;;;;;;2071466;28;20033;-50
2023/12/24 01:46:21;;;;;;;2.70;1.30;;;19.80;77.00;;;;;;2067347;28;20045;-51
2023/12/24 01:47:22;;;;;;;3.28;1.20;;;19.80;77.00;;;;;;2069166;28;20400;-50
2023/12/24 01:48:24;;;;;;;3.63;1.25;;;19.80;77.00;;;;;;2071598;28;20026;-52
2023/12/24 01:49:25;;;;;;;3.42;1.13;;;19.80;77.00;;;;;;2067615;28;20034;-51
2023/12/24 01:50:25;;;;;;;3.35;1.10;;;19.80;77.00;;;;;;2067375;28;20018;-50
2023/12/24 01:51:29;;;;;;;3.88;1.23;;;19.80;77.00;;;;;;2066788;28;20527;-51
2023/12/24 01:52:29;;;;;;;3.28;1.10;;;19.80;77.00;;;;;;2069844;28;20022;-50
2023/12/24 01:53:31;;;;;;;3.92;1.20;;;19.80;77.00;;;;;;2071430;28;20369;-50
2023/12/24 01:54:33;;;;;;;1.75;1.08;;;19.80;77.00;;;;;;2072186;28;20018;-50
2023/12/24 01:55:34;;;;;;;1.98;1.30;;;19.80;77.00;;;;;;2069390;28;20023;-51
2023/12/24 01:56:35;;;;;;;1.80;1.30;;;19.80;77.00;;;;;;2072095;28;20392;-53
2023/12/24 01:57:36;;;;;;;3.20;1.27;;;19.80;77.00;;;;;;2071200;28;20040;-52
2023/12/24 01:58:37;;;;;;;2.13;1.00;;;19.70;77.00;;;;;;2067662;28;20024;-52
2023/12/24 01:59:39;;;;;;;1.70;1.10;;;19.80;77.00;;;;;;2067972;28;20175;-53
2023/12/24 02:00:41;;;;;;;1.60;0.95;;;19.80;77.00;;;;;;2072096;28;20018;-50
2023/12/24 02:01:42;;;;;;;2.60;1.02;;;19.80;77.00;;;;;;2071807;28;20201;-53
2023/12/24 02:02:43;;;;;;;2.55;0.90;;;19.80;77.00;;;;;;2071418;28;20396;-52
2023/12/24 02:03:44;;;;;;;1.92;1.05;;;19.70;77.00;;;;;;2071303;28;20030;-53
2023/12/24 02:04:44;;;;;;;3.53;1.20;;;19.80;77.00;;;;;;2069203;28;20022;-50
2023/12/24 02:05:47;;;;;;;1.98;1.15;;;19.70;77.00;;;;;;2067888;28;20062;-52
2023/12/24 02:06:50;;;;;;;2.33;1.15;;;19.80;77.00;;;;;;2070224;28;20060;-52
2023/12/24 02:07:51;;;;;;;4.63;1.25;;;19.70;77.00;;;;;;2069075;28;20033;-52
2023/12/24 02:08:52;;;;;;;2.67;1.10;;;19.70;77.00;;;;;;2066989;28;20030;-52
2023/12/24 02:09:53;;;;;;;2.28;1.38;;;19.70;76.90;;;;;;2066578;28;20064;-51
2023/12/24 02:10:54;;;;;;;4.15;1.75;;;19.70;76.90;;;;;;2066135;28;20508;-51
2023/12/24 02:11:55;;;;;;;3.17;1.15;;;19.70;77.50;;;;;;2066563;28;20087;-51
2023/12/24 02:12:55;;;;;;;1.90;1.33;;;19.80;77.00;;;;;;2068846;28;20029;-52
2023/12/24 02:13:56;;;;;;;2.67;1.10;;;19.70;76.90;;;;;;2066478;28;20561;-53
2023/12/24 02:14:57;;;;;;;2.75;1.35;;;19.70;76.90;;;;;;2066022;28;20057;-52
2023/12/24 02:16:00;;;;;;;2.42;1.05;;;19.70;76.90;;;;;;2070015;28;20060;-52
2023/12/24 02:17:04;;;;;;;3.65;1.30;;;19.70;76.90;;;;;;2069296;28;20022;-50
2023/12/24 02:18:08;;;;;;;3.40;1.38;;;19.70;76.90;;;;;;2069917;28;20018;-51
2023/12/24 02:19:16;;;;;;;1.80;1.20;;;19.70;76.90;;;;;;2068115;28;20564;-50
2023/12/24 02:20:24;;;;;;;2.42;0.98;;;19.70;76.90;;;;;;2068681;28;20030;-52
2023/12/24 02:21:25;;;;;;;2.95;1.15;;;19.70;76.90;;;;;;2067150;28;20019;-52
2023/12/24 02:22:25;;;;;;;2.35;1.10;;;19.70;76.90;;;;;;2068597;28;20480;-53
2023/12/24 02:23:26;;;;;;;2.75;1.10;;;19.80;77.00;;;;;;2068068;28;20363;-52
2023/12/24 02:24:27;;;;;;;2.50;1.10;;;19.70;76.90;;;;;;2067016;28;20042;-51
2023/12/24 02:25:28;;;;;;;3.13;0.95;;;19.70;77.50;;;;;;2067126;28;20054;-51
2023/12/24 02:26:35;;;;;;;4.20;1.30;;;19.70;76.90;;;;;;2068380;28;20385;-50
2023/12/24 02:27:50;;;;;;;1.20;0.93;;;19.70;76.90;;;;;;2071453;28;20045;-53
2023/12/24 02:28:58;;;;;;;3.40;1.30;;;19.70;76.80;;;;;;2068533;28;20393;-53
2023/12/24 02:30:05;;;;;;;1.63;1.10;;;19.70;76.90;;;;;;2068993;28;20018;-50
2023/12/24 02:31:10;;;;;;;1.98;1.08;;;19.70;76.90;;;;;;2068939;28;20041;-51
2023/12/24 02:32:16;;;;;;;1.77;0.85;;;19.70;76.90;;;;;;2067878;28;20077;-51
2023/12/24 02:33:19;;;;;;;2.45;1.13;;;19.70;76.90;;;;;;2069883;28;20485;-51
2023/12/24 02:34:20;;;;;;;4.50;1.20;;;19.70;76.90;;;;;;2068137;28;20049;-50
2023/12/24 02:35:23;;;;;;;3.00;1.23;;;19.70;76.90;;;;;;2071378;28;20022;-50
2023/12/24 02:36:24;;;;;;;1.73;1.13;;;19.70;76.90;;;;;;2069179;28;20026;-52
2023/12/24 02:37:25;;;;;;;2.38;1.60;;;19.70;76.90;;;;;;2070313;28;20022;-51
2023/12/24 02:38:26;;;;;;;3.17;1.35;;;19.70;76.80;;;;;;2071053;28;20021;-53
2023/12/24 02:39:27;;;;;;;2.28;1.35;;;19.70;76.80;;;;;;2070947;28;20532;-51
2023/12/24 02:40:27;;;;;;;1.85;1.10;;;19.70;76.90;;;;;;2066353;28;20026;-53
2023/12/24 02:41:28;;;;;;;1.20;0.80;;;19.70;76.80;;;;;;2066231;28;20199;-51
2023/12/24 02:42:28;;;;;;;3.13;1.10;;;19.70;76.80;;;;;;2069865;28;20021;-53
2023/12/24 02:43:29;;;;;;;2.70;1.20;;;19.70;76.80;;;;;;2067624;28;20026;-51
2023/12/24 02:44:29;;;;;;;2.40;0.90;;;19.70;76.80;;;;;;2069986;28;20033;-50
2023/12/24 02:45:30;;;;;;;2.22;1.00;;;19.60;76.80;;;;;;2067206;28;20092;-51
2023/12/24 02:46:30;;;;;;;1.33;0.90;;;19.70;76.90;;;;;;2070496;28;20021;-54
2023/12/24 02:47:31;;;;;;;2.28;1.02;;;19.70;76.90;;;;;;2066953;28;20129;-51
2023/12/24 02:48:31;;;;;;;1.83;1.08;;;19.60;76.80;;;;;;2070150;28;20081;-51
2023/12/24 02:49:32;;;;;;;2.80;1.00;;;19.60;76.80;;;;;;2069443;28;20030;-50
2023/12/24 02:50:32;;;;;;;2.28;1.10;;;19.60;76.80;;;;;;2068150;28;20018;-50
2023/12/24 02:51:33;;;;;;;1.40;0.90;;;19.60;76.80;;;;;;2066633;28;20030;-51
2023/12/24 02:52:34;;;;;;;2.92;1.15;;;19.60;76.80;;;;;;2070444;28;20041;-51
2023/12/24 02:53:34;;;;;;;1.45;0.90;;;19.60;76.80;;;;;;2069455;28;20042;-50
2023/12/24 02:54:35;;;;;;;1.27;0.95;;;19.60;76.80;;;;;;2067467;28;20018;-50
2023/12/24 02:55:35;;;;;;;1.60;0.95;;;19.60;76.80;;;;;;2066600;28;20473;-50
2023/12/24 02:56:36;;;;;;;3.05;1.00;;;19.60;76.80;;;;;;2070339;28;20034;-51
2023/12/24 02:57:37;;;;;;;3.00;1.05;;;19.70;76.80;;;;;;2071405;28;20029;-51
2023/12/24 02:58:37;;;;;;;3.03;1.00;;;19.70;76.80;;;;;;2068666;28;20023;-51
2023/12/24 02:59:38;;;;;;;2.10;0.95;;;19.60;76.70;;;;;;2069010;28;20041;-50
2023/12/24 03:00:38;;;;;;;2.13;1.00;;;19.60;76.70;;;;;;2071502;28;20029;-51
2023/12/24 03:01:39;;;;;;;2.08;1.25;;;19.60;76.70;;;;;;2066175;28;20030;-51
2023/12/24 03:02:39;;;;;;;1.20;0.88;;;19.60;76.80;;;;;;2071112;28;20069;-53
2023/12/24 03:03:40;;;;;;;1.73;1.00;;;19.60;76.70;;;;;;2067073;28;20026;-51
2023/12/24 03:04:41;;;;;;;2.53;1.23;;;19.60;76.80;;;;;;2071643;28;20109;-51
2023/12/24 03:05:41;;;;;;;2.13;1.05;;;19.60;76.70;;;;;;2066451;28;20053;-51
2023/12/24 03:06:42;;;;;;;2.40;0.77;;;19.60;76.70;;;;;;2067557;28;20018;-51
2023/12/24 03:07:43;;;;;;;1.73;0.98;;;19.70;76.70;;;;;;2068582;28;20045;-51
2023/12/24 03:08:43;;;;;;;0.82;0.80;;;19.60;76.70;;;;;;2066749;28;20161;-51
2023/12/24 03:09:44;;;;;;;1.75;0.93;;;19.60;76.70;;;;;;2067144;28;20026;-51
2023/12/24 03:10:44;;;;;;;1.92;1.00;;;19.60;76.70;;;;;;2066862;28;20018;-50
2023/12/24 03:11:46;;;;;;;2.15;0.95;;;19.60;76.60;;;;;;2067246;28;20075;-51
2023/12/24 03:12:46;;;;;;;2.45;1.00;;;19.60;76.70;;;;;;2070005;28;20025;-51
2023/12/24 03:13:47;;;;;;;3.65;1.02;;;19.60;76.70;;;;;;2066900;28;20029;-50
2023/12/24 03:14:47;;;;;;;1.48;1.00;;;19.60;76.70;;;;;;2066946;28;20029;-50
2023/12/24 03:15:48;;;;;;;2.47;0.80;;;19.70;76.70;;;;;;2065203;28;20028;-52
2023/12/24 03:16:48;;;;;;;1.92;1.00;;;19.60;76.70;;;;;;2067406;28;20465;-51
2023/12/24 03:17:49;;;;;;;1.52;0.90;;;19.60;76.70;;;;;;2069245;28;20392;-51
2023/12/24 03:18:50;;;;;;;1.20;0.75;;;19.60;76.70;;;;;;2068401;28;20124;-51
2023/12/24 03:19:50;;;;;;;2.63;1.00;;;19.60;76.70;;;;;;2070916;28;20034;-50
2023/12/24 03:20:51;;;;;;;2.20;1.40;;;19.50;76.60;;;;;;2070533;28;20037;-52
2023/12/24 03:21:52;;;;;;;2.28;0.98;;;19.60;76.70;;;;;;2067691;28;20320;-51
2023/12/24 03:22:52;;;;;;;2.97;1.08;;;19.60;76.70;;;;;;2070409;28;20049;-51
2023/12/24 03:23:53;;;;;;;3.17;1.10;;;19.60;76.60;;;;;;2069231;28;20079;-50
2023/12/24 03:24:54;;;;;;;1.88;1.08;;;19.60;76.70;;;;;;2069115;28;20033;-51
2023/12/24 03:25:54;;;;;;;3.67;1.00;;;19.60;76.70;;;;;;2067888;28;20022;-50
2023/12/24 03:26:55;;;;;;;1.02;0.93;;;19.60;76.60;;;;;;2071160;28;20492;-50
2023/12/24 03:27:55;;;;;;;4.10;1.20;;;19.50;76.60;;;;;;2070985;28;20351;-52
2023/12/24 03:28:56;;;;;;;1.08;1.00;;;19.60;76.70;;;;;;2069728;28;20049;-54
2023/12/24 03:29:57;;;;;;;1.42;0.88;;;19.60;76.70;;;;;;2067383;28;20484;-51
2023/12/24 03:30:58;;;;;;;2.00;0.90;;;19.60;76.70;;;;;;2066859;28;20563;-51
2023/12/24 03:31:58;;;;;;;1.92;0.90;;;19.60;76.70;;;;;;2068665;28;20025;-51
2023/12/24 03:32:59;;;;;;;2.22;0.95;;;19.50;76.60;;;;;;2067683;28;20032;-51
2023/12/24 03:33:59;;;;;;;2.35;0.95;;;19.60;76.70;;;;;;2068700;28;20022;-50
2023/12/24 03:35:00;;;;;;;2.35;1.05;;;19.60;76.60;;;;;;2070851;28;20489;-52
2023/12/24 03:36:00;;;;;;;1.30;0.80;;;19.60;76.70;;;;;;2070818;28;20051;-51
2023/12/24 03:37:01;;;;;;;2.33;0.95;;;19.60;76.70;;;;;;2069724;28;20044;-51
2023/12/24 03:38:02;;;;;;;0.95;0.85;;;19.60;77.20;;;;;;2066987;28;20026;-50
2023/12/24 03:39:03;;;;;;;1.70;0.90;;;19.60;76.60;;;;;;2066950;28;20030;-51
2023/12/24 03:40:03;;;;;;;1.23;0.90;;;19.50;76.60;;;;;;2069152;28;20096;-52
2023/12/24 03:41:04;;;;;;;1.65;0.95;;;19.60;76.60;;;;;;2066644;28;20080;-53
2023/12/24 03:42:05;;;;;;;1.25;0.90;;;19.50;76.60;;;;;;2068367;28;20241;-53
2023/12/24 03:43:05;;;;;;;1.77;0.75;;;19.50;76.50;;;;;;2070458;28;20025;-51
2023/12/24 03:44:06;;;;;;;1.58;0.93;;;19.60;76.60;;;;;;2067664;28;20484;-50
2023/12/24 03:45:07;;;;;;;1.58;0.90;;;19.50;76.60;;;;;;2070895;28;20068;-50
2023/12/24 03:46:07;;;;;;;1.40;0.85;;;19.50;76.60;;;;;;2066690;28;20077;-50
2023/12/24 03:47:08;;;;;;;2.65;0.90;;;19.60;76.70;;;;;;2069006;28;20033;-51
2023/12/24 03:48:08;;;;;;;1.50;0.90;;;19.50;76.70;;;;;;2067120;28;20049;-51
2023/12/24 03:49:10;;;;;;;1.63;1.10;;;19.50;76.70;;;;;;2068956;28;20093;-51
2023/12/24 03:50:10;;;;;;;2.22;1.02;;;19.50;76.60;;;;;;2066740;28;20512;-50
2023/12/24 03:51:11;;;;;;;1.40;0.88;;;19.60;76.70;;;;;;2068569;28;20045;-53
2023/12/24 03:52:12;;;;;;;1.35;0.90;;;19.50;76.60;;;;;;2065891;28;20042;-51
2023/12/24 03:53:12;;;;;;;1.55;1.00;;;19.50;76.60;;;;;;2069406;28;20025;-51
2023/12/24 03:54:13;;;;;;;1.20;0.70;;;19.50;76.60;;;;;;2068006;28;20105;-50
2023/12/24 03:55:14;;;;;;;1.50;1.00;;;19.50;76.60;;;;;;2069570;28;20455;-51
2023/12/24 03:56:14;;;;;;;1.23;1.02;;;19.50;76.60;;;;;;2070225;28;20045;-52
2023/12/24 03:57:15;;;;;;;2.92;1.10;;;19.50;76.70;;;;;;2071466;28;20026;-50
2023/12/24 03:58:15;;;;;;;1.73;0.90;;;19.40;76.50;;;;;;2069835;28;20050;-51
2023/12/24 03:59:16;;;;;;;1.77;0.90;;;19.50;76.60;;;;;;2070966;28;20079;-51
2023/12/24 04:00:17;;;;;;;2.63;0.95;;;19.50;76.60;;;;;;2070997;28;20025;-51
2023/12/24 04:01:24;;;;;;;1.98;0.95;;;19.50;76.60;;;;;;2067361;28;20026;-52
2023/12/24 04:02:25;;;;;;;2.92;0.98;;;19.50;76.60;;;;;;2068377;28;20030;-50
2023/12/24 04:03:25;;;;;;;2.20;0.90;;;19.50;76.60;;;;;;2070153;28;20018;-50
2023/12/24 04:04:26;;;;;;;2.95;0.88;;;19.50;76.60;;;;;;2070200;28;20021;-53
2023/12/24 04:05:26;;;;;;;2.05;1.13;;;19.50;76.60;;;;;;2067525;28;20026;-52
2023/12/24 04:06:27;;;;;;;2.13;1.00;;;19.50;76.60;;;;;;2065771;28;20104;-53
2023/12/24 04:07:28;;;;;;;1.65;0.77;;;19.50;76.60;;;;;;2067804;28;20439;-53
2023/12/24 04:08:28;;;;;;;1.27;0.90;;;19.60;76.60;;;;;;2070860;28;20065;-51
2023/12/24 04:09:31;;;;;;;1.25;0.90;;;19.50;76.60;;;;;;2065950;28;20098;-50
2023/12/24 04:10:32;;;;;;;1.38;0.80;;;19.60;76.70;;;;;;2067139;28;20065;-50
2023/12/24 04:11:32;;;;;;;1.23;0.95;;;19.50;76.60;;;;;;2071165;28;20018;-52
2023/12/24 04:12:33;;;;;;;2.90;1.10;;;19.50;76.60;;;;;;2070180;28;20699;-50
2023/12/24 04:13:34;;;;;;;1.98;0.98;;;19.50;76.60;;;;;;2067413;28;20495;-51
2023/12/24 04:14:41;;;;;;;2.28;0.73;;;19.50;76.60;;;;;;2067421;28;20022;-51
2023/12/24 04:15:41;;;;;;;1.35;0.73;;;19.40;76.50;;;;;;2067481;28;20049;-51
2023/12/24 04:16:42;;;;;;;1.50;0.70;;;19.50;76.60;;;;;;2071220;28;20491;-51
2023/12/24 04:17:42;;;;;;;1.58;0.60;;;19.60;76.70;;;;;;2066541;28;20568;-50
2023/12/24 04:18:43;;;;;;;1.10;0.80;;;19.50;76.60;;;;;;2070265;28;20026;-52
2023/12/24 04:19:43;;;;;;;1.15;0.85;;;19.50;76.60;;;;;;2071479;28;20280;-50
2023/12/24 04:20:44;;;;;;;0.95;0.70;;;19.50;76.60;;;;;;2070407;28;20037;-51
2023/12/24 04:21:44;;;;;;;1.38;0.82;;;19.50;76.60;;;;;;2067618;28;20104;-51
2023/12/24 04:22:45;;;;;;;1.45;0.95;;;19.50;76.60;;;;;;2067494;28;20025;-50
2023/12/24 04:23:45;;;;;;;2.55;0.80;;;19.50;76.60;;;;;;2068477;28;20089;-52
2023/12/24 04:24:46;;;;;;;1.95;0.70;;;19.40;76.50;;;;;;2067143;28;20065;-51
2023/12/24 04:25:46;;;;;;;1.35;0.70;;;19.50;76.60;;;;;;2066427;28;20101;-51
2023/12/24 04:26:47;;;;;;;1.10;0.90;;;19.50;76.60;;;;;;2071146;28;20488;-51
2023/12/24 04:27:48;;;;;;;3.15;0.80;;;19.40;76.50;;;;;;2072149;28;20088;-50
2023/12/24 04:28:48;;;;;;;1.55;0.80;;;19.40;76.50;;;;;;2072579;28;20022;-51
2023/12/24 04:29:49;;;;;;;1.10;0.60;;;19.40;76.50;;;;;;2069367;28;20030;-50
2023/12/24 04:30:49;;;;;;;1.58;0.90;;;19.50;76.60;;;;;;2069929;28;20032;-51
2023/12/24 04:31:50;;;;;;;1.17;0.68;;;19.50;76.60;;;;;;2069649;28;20022;-52
2023/12/24 04:32:50;;;;;;;1.58;0.70;;;19.50;76.60;;;;;;2069304;28;20033;-52
2023/12/24 04:33:51;;;;;;;1.83;0.77;;;19.40;76.50;;;;;;2067470;28;20034;-51
2023/12/24 04:34:51;;;;;;;1.30;0.80;;;19.50;76.60;;;;;;2069498;28;20022;-51
2023/12/24 04:35:52;;;;;;;2.30;0.70;;;19.40;76.60;;;;;;2071380;28;20101;-50
2023/12/24 04:36:53;;;;;;;1.63;0.70;;;19.40;76.60;;;;;;2071908;28;20014;-52
2023/12/24 04:37:54;;;;;;;1.23;0.70;;;19.50;76.60;;;;;;2068494;28;20047;-50
2023/12/24 04:38:54;;;;;;;1.60;0.80;;;19.40;76.50;;;;;;2068698;28;20027;-52
2023/12/24 04:39:55;;;;;;;1.85;0.70;;;19.40;76.60;;;;;;2069714;28;20041;-51
2023/12/24 04:40:55;;;;;;;1.92;0.93;;;19.40;76.60;;;;;;2071446;28;20026;-51
2023/12/24 04:41:56;;;;;;;1.13;0.70;;;19.40;76.60;;;;;;2070441;28;20022;-51
2023/12/24 04:42:57;;;;;;;1.05;0.70;;;19.40;76.60;;;;;;2070006;28;20060;-51
2023/12/24 04:43:57;;;;;;;1.13;0.63;;;19.40;76.60;;;;;;2071580;28;20041;-54
2023/12/24 04:44:58;;;;;;;1.38;0.70;;;19.40;76.60;;;;;;2066876;28;20034;-54
2023/12/24 04:45:58;;;;;;;1.52;0.77;;;19.40;76.50;;;;;;2072623;28;20026;-52
2023/12/24 04:46:59;;;;;;;2.30;0.80;;;19.40;76.60;;;;;;2071706;28;20098;-50
2023/12/24 04:47:59;;;;;;;1.83;0.80;;;19.40;76.60;;;;;;2070284;28;20355;-50
2023/12/24 04:49:00;;;;;;;2.72;0.80;;;19.40;76.60;;;;;;2066190;28;20061;-51
2023/12/24 04:50:00;;;;;;;1.63;0.73;;;19.40;76.60;;;;;;2068663;28;20500;-51
2023/12/24 04:51:01;;;;;;;1.15;0.65;;;19.40;76.60;;;;;;2069869;28;20528;-50
2023/12/24 04:52:02;;;;;;;1.55;0.60;;;19.40;76.60;;;;;;2071329;28;20018;-51
2023/12/24 04:53:02;;;;;;;3.05;0.80;;;19.40;76.60;;;;;;2068443;28;20030;-50
2023/12/24 04:54:03;;;;;;;1.10;0.63;;;19.40;76.60;;;;;;2070497;28;20022;-51
2023/12/24 04:55:04;;;;;;;1.08;0.60;;;19.40;76.60;;;;;;2072589;28;20022;-51
2023/12/24 04:56:06;;;;;;;1.58;0.70;;;19.40;76.50;;;;;;2072068;28;20557;-51
2023/12/24 04:57:06;;;;;;;1.10;0.70;;;19.40;76.50;;;;;;2071063;28;20026;-50
2023/12/24 04:58:07;;;;;;;1.75;0.70;;;19.40;76.50;;;;;;2070138;28;20103;-50
2023/12/24 04:59:08;;;;;;;2.75;0.70;;;19.50;76.70;;;;;;2072077;28;20022;-52
2023/12/24 05:00:09;;;;;;;1.05;0.60;;;19.40;76.60;;;;;;2072091;28;20065;-50
2023/12/24 05:01:10;;;;;;;0.93;0.70;;;19.40;76.60;;;;;;2071202;28;20520;-51
2023/12/24 05:02:10;;;;;;;1.23;0.70;;;19.40;76.60;;;;;;2072472;28;20038;-51
2023/12/24 05:03:11;;;;;;;2.08;0.70;;;19.40;76.60;;;;;;2070206;28;20353;-52
2023/12/24 05:04:11;;;;;;;1.20;0.80;;;19.40;76.60;;;;;;2069269;28;20178;-51
2023/12/24 05:05:12;;;;;;;0.95;0.60;;;19.40;76.60;;;;;;2071301;28;20519;-51
2023/12/24 05:06:13;;;;;;;1.13;0.60;;;19.40;76.60;;;;;;2069195;28;20429;-52
2023/12/24 05:07:14;;;;;;;1.70;0.65;;;19.40;76.60;;;;;;2072130;28;20018;-51
2023/12/24 05:08:14;;;;;;;1.30;0.77;;;19.40;76.60;;;;;;2069988;28;20029;-54
2023/12/24 05:09:15;;;;;;;3.50;0.70;;;19.40;76.60;;;;;;2069189;28;20396;-50
2023/12/24 05:10:15;;;;;;;1.30;0.80;;;19.40;76.60;;;;;;2069994;28;20025;-54
2023/12/24 05:11:16;;;;;;;0.60;0.60;;;19.40;76.60;;;;;;2069012;28;20117;-51
2023/12/24 05:12:16;;;;;;;1.23;0.65;;;19.40;76.60;;;;;;2068916;28;20049;-51
2023/12/24 05:13:17;;;;;;;0.50;0.50;;;19.40;76.60;;;;;;2069585;28;20018;-51
2023/12/24 05:14:18;;;;;;;1.13;0.80;;;19.40;76.60;;;;;;2068805;28;20018;-52
2023/12/24 05:15:18;;;;;;;1.40;0.77;;;19.40;76.60;;;;;;2070546;28;20022;-50
2023/12/24 05:16:19;;;;;;;2.60;1.10;;;19.40;76.60;;;;;;2066914;28;20113;-54
2023/12/24 05:17:19;;;;;;;2.30;0.70;;;19.40;76.60;;;;;;2071649;28;20182;-51
2023/12/24 05:18:20;;;;;;;0.90;0.70;;;19.40;76.60;;;;;;2070664;28;20630;-50